sensor_id;sensor_type;location;lat;lon;timestamp;pressure;altitude;pressure_sealevel;temperature;humidity
56944;BME280;42848;42.524;12.052;2022-11-15T00:01:50;97128.22;;;9.67;100.00
56944;BME280;42848;42.524;12.052;2022-11-15T00:04:16;97128.94;;;9.73;100.00
56944;BME280;42848;42.524;12.052;2022-11-15T00:06:41;97125.22;;;9.68;100.00
56944;BME280;42848;42.524;12.052;2022-11-15T00:09:07;97125.81;;;9.79;100.00
56944;BME280;42848;42.524;12.052;2022-11-15T00:11:32;97126.00;;;9.69;100.00
56944;BME280;42848;42.524;12.052;2022-11-15T00:13:58;97127.22;;;9.77;100.00
56944;BME280;42848;42.524;12.052;2022-11-15T00:16:24;97125.03;;;9.65;100.00
56944;BME280;42848;42.524;12.052;2022-11-15T00:18:50;97124.94;;;9.70;100.00
56944;BME280;42848;42.524;12.052;2022-11-15T00:21:17;97124.22;;;9.64;100.00
56944;BME280;42848;42.524;12.052;2022-11-15T00:23:42;97122.72;;;9.72;100.00
56944;BME280;42848;42.524;12.052;2022-11-15T00:26:12;97125.56;;;9.53;100.00
56944;BME280;42848;42.524;12.052;2022-11-15T00:28:39;97125.88;;;9.52;100.00
56944;BME280;42848;42.524;12.052;2022-11-15T00:31:09;97119.22;;;9.58;100.00
56944;BME280;42848;42.524;12.052;2022-11-15T00:33:35;97116.19;;;9.59;100.00
56944;BME280;42848;42.524;12.052;2022-11-15T00:36:06;97128.66;;;9.47;100.00
56944;BME280;42848;42.524;12.052;2022-11-15T00:38:33;97129.50;;;9.33;100.00
56944;BME280;42848;42.524;12.052;2022-11-15T00:41:00;97128.44;;;9.57;100.00
56944;BME280;42848;42.524;12.052;2022-11-15T00:43:26;97121.34;;;9.20;100.00
56944;BME280;42848;42.524;12.052;2022-11-15T00:45:51;97128.75;;;9.41;100.00
56944;BME280;42848;42.524;12.052;2022-11-15T00:48:17;97122.66;;;9.36;100.00
56944;BME280;42848;42.524;12.052;2022-11-15T00:50:43;97111.13;;;9.44;100.00
56944;BME280;42848;42.524;12.052;2022-11-15T00:53:09;97116.41;;;9.49;100.00
56944;BME280;42848;42.524;12.052;2022-11-15T00:55:34;97111.81;;;9.22;100.00
56944;BME280;42848;42.524;12.052;2022-11-15T00:58:00;97117.63;;;9.29;100.00
56944;BME280;42848;42.524;12.052;2022-11-15T01:00:26;97114.94;;;9.43;100.00
56944;BME280;42848;42.524;12.052;2022-11-15T01:02:51;97109.41;;;9.21;100.00
56944;BME280;42848;42.524;12.052;2022-11-15T01:05:17;97110.53;;;9.33;100.00
56944;BME280;42848;42.524;12.052;2022-11-15T01:07:43;97109.00;;;9.27;100.00
56944;BME280;42848;42.524;12.052;2022-11-15T01:10:09;97097.69;;;9.25;100.00
56944;BME280;42848;42.524;12.052;2022-11-15T01:12:35;97098.56;;;9.21;100.00
56944;BME280;42848;42.524;12.052;2022-11-15T01:15:00;97096.78;;;9.16;100.00
56944;BME280;42848;42.524;12.052;2022-11-15T01:17:27;97094.28;;;9.33;100.00
56944;BME280;42848;42.524;12.052;2022-11-15T01:19:52;97093.34;;;9.38;100.00
56944;BME280;42848;42.524;12.052;2022-11-15T01:22:18;97085.22;;;9.52;100.00
56944;BME280;42848;42.524;12.052;2022-11-15T01:24:44;97084.28;;;9.56;100.00
56944;BME280;42848;42.524;12.052;2022-11-15T01:27:09;97071.84;;;9.41;100.00
56944;BME280;42848;42.524;12.052;2022-11-15T01:29:35;97083.81;;;9.40;100.00
56944;BME280;42848;42.524;12.052;2022-11-15T01:32:01;97088.63;;;9.30;100.00
56944;BME280;42848;42.524;12.052;2022-11-15T01:34:27;97085.13;;;9.29;100.00
56944;BME280;42848;42.524;12.052;2022-11-15T01:36:52;97079.91;;;8.92;100.00
56944;BME280;42848;42.524;12.052;2022-11-15T01:39:18;97087.75;;;9.07;100.00
56944;BME280;42848;42.524;12.052;2022-11-15T01:41:44;97085.53;;;9.23;100.00
56944;BME280;42848;42.524;12.052;2022-11-15T01:44:36;97084.72;;;9.36;100.00
56944;BME280;42848;42.524;12.052;2022-11-15T01:47:19;97071.31;;;9.17;100.00
56944;BME280;42848;42.524;12.052;2022-11-15T01:50:08;97071.19;;;9.22;100.00
56944;BME280;42848;42.524;12.052;2022-11-15T01:52:35;97071.88;;;9.14;100.00
56944;BME280;42848;42.524;12.052;2022-11-15T01:55:08;97064.66;;;9.23;100.00
56944;BME280;42848;42.524;12.052;2022-11-15T01:57:35;97064.06;;;9.26;100.00
56944;BME280;42848;42.524;12.052;2022-11-15T02:00:03;97055.03;;;9.17;100.00
56944;BME280;42848;42.524;12.052;2022-11-15T02:02:30;97058.06;;;9.16;100.00
56944;BME280;42848;42.524;12.052;2022-11-15T02:04:56;97053.13;;;9.04;100.00
56944;BME280;42848;42.524;12.052;2022-11-15T02:07:22;97049.72;;;9.12;100.00
56944;BME280;42848;42.524;12.052;2022-11-15T02:09:49;97056.47;;;9.01;100.00
56944;BME280;42848;42.524;12.052;2022-11-15T02:12:19;97068.81;;;9.07;100.00
56944;BME280;42848;42.524;12.052;2022-11-15T02:14:52;97064.75;;;9.04;100.00
56944;BME280;42848;42.524;12.052;2022-11-15T02:20:39;97060.75;;;9.02;100.00
56944;BME280;42848;42.524;12.052;2022-11-15T02:28:36;97057.44;;;8.77;100.00
56944;BME280;42848;42.524;12.052;2022-11-15T02:39:57;97047.63;;;8.95;100.00
56944;BME280;42848;42.524;12.052;2022-11-15T02:42:28;97053.66;;;9.06;100.00
56944;BME280;42848;42.524;12.052;2022-11-15T02:45:23;97057.66;;;8.95;100.00
56944;BME280;42848;42.524;12.052;2022-11-15T02:47:52;97053.03;;;8.81;100.00
56944;BME280;42848;42.524;12.052;2022-11-15T02:50:23;97055.16;;;8.71;100.00
56944;BME280;42848;42.524;12.052;2022-11-15T02:52:50;97053.34;;;8.94;100.00
56944;BME280;42848;42.524;12.052;2022-11-15T02:58:15;97047.63;;;8.81;100.00
56944;BME280;42848;42.524;12.052;2022-11-15T03:00:59;97055.25;;;8.79;100.00
56944;BME280;42848;42.524;12.052;2022-11-15T03:03:48;97045.63;;;8.73;100.00
56944;BME280;42848;42.524;12.052;2022-11-15T03:06:31;97032.38;;;8.86;100.00
56944;BME280;42848;42.524;12.052;2022-11-15T03:09:29;97028.38;;;8.97;100.00
56944;BME280;42848;42.524;12.052;2022-11-15T03:12:17;97038.19;;;8.93;100.00
56944;BME280;42848;42.524;12.052;2022-11-15T03:17:19;97030.97;;;9.02;100.00
56944;BME280;42848;42.524;12.052;2022-11-15T03:19:54;97033.41;;;8.90;100.00
56944;BME280;42848;42.524;12.052;2022-11-15T03:22:23;97037.22;;;8.89;100.00
56944;BME280;42848;42.524;12.052;2022-11-15T03:24:54;97045.81;;;8.91;100.00
56944;BME280;42848;42.524;12.052;2022-11-15T03:27:23;97042.41;;;8.99;100.00
56944;BME280;42848;42.524;12.052;2022-11-15T03:29:54;97050.75;;;8.89;100.00
56944;BME280;42848;42.524;12.052;2022-11-15T03:32:25;97035.78;;;9.05;100.00
56944;BME280;42848;42.524;12.052;2022-11-15T03:35:01;97034.72;;;8.78;100.00
56944;BME280;42848;42.524;12.052;2022-11-15T03:37:59;97035.88;;;8.86;100.00
56944;BME280;42848;42.524;12.052;2022-11-15T03:40:29;97039.50;;;8.81;100.00
56944;BME280;42848;42.524;12.052;2022-11-15T03:43:04;97036.59;;;8.64;100.00
56944;BME280;42848;42.524;12.052;2022-11-15T03:45:43;97040.69;;;8.75;100.00
56944;BME280;42848;42.524;12.052;2022-11-15T03:48:21;97038.59;;;8.86;100.00
56944;BME280;42848;42.524;12.052;2022-11-15T03:50:48;97044.63;;;8.97;100.00
56944;BME280;42848;42.524;12.052;2022-11-15T03:53:14;97043.00;;;8.96;100.00
56944;BME280;42848;42.524;12.052;2022-11-15T03:55:40;97051.84;;;9.01;100.00
56944;BME280;42848;42.524;12.052;2022-11-15T03:58:06;97050.94;;;8.92;100.00
56944;BME280;42848;42.524;12.052;2022-11-15T04:00:32;97039.69;;;8.85;100.00
56944;BME280;42848;42.524;12.052;2022-11-15T04:02:58;97035.19;;;8.53;100.00
56944;BME280;42848;42.524;12.052;2022-11-15T04:05:24;97043.09;;;8.77;100.00
56944;BME280;42848;42.524;12.052;2022-11-15T04:07:50;97034.59;;;8.83;100.00
56944;BME280;42848;42.524;12.052;2022-11-15T04:10:16;97027.97;;;8.90;100.00
56944;BME280;42848;42.524;12.052;2022-11-15T04:12:44;97026.78;;;8.82;100.00
56944;BME280;42848;42.524;12.052;2022-11-15T04:15:13;97028.19;;;8.79;100.00
56944;BME280;42848;42.524;12.052;2022-11-15T04:20:10;97019.75;;;8.81;100.00
56944;BME280;42848;42.524;12.052;2022-11-15T04:22:56;97004.31;;;8.81;100.00
56944;BME280;42848;42.524;12.052;2022-11-15T04:25:41;97004.59;;;8.94;100.00
56944;BME280;42848;42.524;12.052;2022-11-15T04:28:08;97003.91;;;8.74;100.00
56944;BME280;42848;42.524;12.052;2022-11-15T04:30:33;97001.91;;;8.80;100.00
56944;BME280;42848;42.524;12.052;2022-11-15T04:32:59;97002.31;;;8.73;100.00
56944;BME280;42848;42.524;12.052;2022-11-15T04:35:25;97000.91;;;8.62;100.00
56944;BME280;42848;42.524;12.052;2022-11-15T04:37:51;96995.50;;;8.62;100.00
56944;BME280;42848;42.524;12.052;2022-11-15T04:40:17;97001.88;;;8.39;100.00
56944;BME280;42848;42.524;12.052;2022-11-15T04:42:42;97003.41;;;8.45;100.00
56944;BME280;42848;42.524;12.052;2022-11-15T04:45:09;96994.19;;;8.73;100.00
56944;BME280;42848;42.524;12.052;2022-11-15T04:47:35;96999.09;;;8.58;100.00
56944;BME280;42848;42.524;12.052;2022-11-15T04:50:00;97014.53;;;8.57;100.00
56944;BME280;42848;42.524;12.052;2022-11-15T04:52:26;97027.47;;;8.74;100.00
56944;BME280;42848;42.524;12.052;2022-11-15T04:54:52;97025.88;;;8.26;100.00
56944;BME280;42848;42.524;12.052;2022-11-15T04:57:18;97017.13;;;8.35;100.00
56944;BME280;42848;42.524;12.052;2022-11-15T04:59:43;96994.69;;;8.48;100.00
56944;BME280;42848;42.524;12.052;2022-11-15T05:02:09;96999.28;;;8.47;100.00
56944;BME280;42848;42.524;12.052;2022-11-15T05:04:35;97001.22;;;8.74;100.00
56944;BME280;42848;42.524;12.052;2022-11-15T05:07:01;96997.59;;;8.65;100.00
56944;BME280;42848;42.524;12.052;2022-11-15T05:09:27;96991.47;;;8.46;100.00
56944;BME280;42848;42.524;12.052;2022-11-15T05:11:53;96991.88;;;8.53;100.00
56944;BME280;42848;42.524;12.052;2022-11-15T05:14:18;96991.06;;;8.66;100.00
56944;BME280;42848;42.524;12.052;2022-11-15T05:16:44;97002.81;;;8.75;100.00
56944;BME280;42848;42.524;12.052;2022-11-15T05:19:10;97007.72;;;8.73;100.00
56944;BME280;42848;42.524;12.052;2022-11-15T05:21:35;97000.31;;;8.51;100.00
56944;BME280;42848;42.524;12.052;2022-11-15T05:24:02;97003.00;;;8.65;100.00
56944;BME280;42848;42.524;12.052;2022-11-15T05:26:28;96996.50;;;8.52;100.00
56944;BME280;42848;42.524;12.052;2022-11-15T05:28:56;96996.91;;;8.73;100.00
56944;BME280;42848;42.524;12.052;2022-11-15T05:31:23;97011.13;;;8.65;100.00
56944;BME280;42848;42.524;12.052;2022-11-15T05:33:50;97005.31;;;8.58;100.00
56944;BME280;42848;42.524;12.052;2022-11-15T05:36:25;96998.50;;;8.47;100.00
56944;BME280;42848;42.524;12.052;2022-11-15T05:38:53;96997.50;;;8.70;100.00
56944;BME280;42848;42.524;12.052;2022-11-15T05:41:21;96996.09;;;8.87;100.00
56944;BME280;42848;42.524;12.052;2022-11-15T05:43:48;96990.59;;;8.78;100.00
56944;BME280;42848;42.524;12.052;2022-11-15T05:46:15;96993.31;;;8.78;100.00
56944;BME280;42848;42.524;12.052;2022-11-15T05:48:45;97005.72;;;8.93;100.00
56944;BME280;42848;42.524;12.052;2022-11-15T05:51:12;96999.69;;;8.96;100.00
56944;BME280;42848;42.524;12.052;2022-11-15T05:53:39;97010.31;;;8.65;100.00
56944;BME280;42848;42.524;12.052;2022-11-15T05:56:05;97014.94;;;8.64;100.00
56944;BME280;42848;42.524;12.052;2022-11-15T05:58:32;97012.44;;;8.81;100.00
56944;BME280;42848;42.524;12.052;2022-11-15T06:00:59;97008.13;;;8.80;100.00
56944;BME280;42848;42.524;12.052;2022-11-15T06:03:25;97012.53;;;8.76;100.00
56944;BME280;42848;42.524;12.052;2022-11-15T06:05:51;97006.91;;;8.87;100.00
56944;BME280;42848;42.524;12.052;2022-11-15T06:08:16;97014.84;;;8.97;100.00
56944;BME280;42848;42.524;12.052;2022-11-15T06:10:42;97008.63;;;8.96;100.00
56944;BME280;42848;42.524;12.052;2022-11-15T06:13:07;97006.03;;;8.91;100.00
56944;BME280;42848;42.524;12.052;2022-11-15T06:15:33;97002.22;;;8.78;100.00
56944;BME280;42848;42.524;12.052;2022-11-15T06:18:00;97013.22;;;8.96;100.00
56944;BME280;42848;42.524;12.052;2022-11-15T06:20:27;97016.34;;;9.03;100.00
56944;BME280;42848;42.524;12.052;2022-11-15T06:22:58;97017.34;;;9.07;100.00
56944;BME280;42848;42.524;12.052;2022-11-15T06:25:24;97017.72;;;9.14;100.00
56944;BME280;42848;42.524;12.052;2022-11-15T06:27:54;97018.13;;;9.21;100.00
56944;BME280;42848;42.524;12.052;2022-11-15T06:30:20;97012.91;;;9.25;100.00
56944;BME280;42848;42.524;12.052;2022-11-15T06:32:46;97011.31;;;9.24;100.00
56944;BME280;42848;42.524;12.052;2022-11-15T06:35:12;97011.31;;;9.24;100.00
56944;BME280;42848;42.524;12.052;2022-11-15T06:37:38;97014.50;;;9.26;100.00
56944;BME280;42848;42.524;12.052;2022-11-15T06:40:04;97012.69;;;9.21;100.00
56944;BME280;42848;42.524;12.052;2022-11-15T06:42:30;97027.75;;;9.27;100.00
56944;BME280;42848;42.524;12.052;2022-11-15T06:44:55;97029.75;;;9.22;100.00
56944;BME280;42848;42.524;12.052;2022-11-15T06:47:21;97022.31;;;9.27;100.00
56944;BME280;42848;42.524;12.052;2022-11-15T06:49:47;97010.59;;;9.18;100.00
56944;BME280;42848;42.524;12.052;2022-11-15T06:52:12;97017.78;;;9.36;100.00
56944;BME280;42848;42.524;12.052;2022-11-15T06:54:38;97019.88;;;9.39;100.00
56944;BME280;42848;42.524;12.052;2022-11-15T06:57:04;97021.91;;;9.34;100.00
56944;BME280;42848;42.524;12.052;2022-11-15T06:59:30;97008.88;;;9.36;100.00
56944;BME280;42848;42.524;12.052;2022-11-15T07:01:56;97016.69;;;9.37;100.00
56944;BME280;42848;42.524;12.052;2022-11-15T07:04:21;97017.25;;;9.48;100.00
56944;BME280;42848;42.524;12.052;2022-11-15T07:06:47;97020.66;;;9.54;100.00
56944;BME280;42848;42.524;12.052;2022-11-15T07:09:13;97023.47;;;9.49;100.00
56944;BME280;42848;42.524;12.052;2022-11-15T07:11:39;97013.09;;;9.28;100.00
56944;BME280;42848;42.524;12.052;2022-11-15T07:14:05;97014.63;;;9.57;100.00
56944;BME280;42848;42.524;12.052;2022-11-15T07:16:30;97020.09;;;9.29;100.00
56944;BME280;42848;42.524;12.052;2022-11-15T07:18:56;97022.19;;;9.46;100.00
56944;BME280;42848;42.524;12.052;2022-11-15T07:21:22;97025.53;;;9.29;100.00
56944;BME280;42848;42.524;12.052;2022-11-15T07:23:48;97022.19;;;9.32;100.00
56944;BME280;42848;42.524;12.052;2022-11-15T07:26:14;97011.00;;;9.25;100.00
56944;BME280;42848;42.524;12.052;2022-11-15T07:28:40;97010.72;;;9.49;100.00
56944;BME280;42848;42.524;12.052;2022-11-15T07:31:07;97010.97;;;9.39;100.00
56944;BME280;42848;42.524;12.052;2022-11-15T07:33:33;97014.00;;;9.60;100.00
56944;BME280;42848;42.524;12.052;2022-11-15T07:36:03;97016.72;;;9.60;100.00
56944;BME280;42848;42.524;12.052;2022-11-15T07:38:30;97020.00;;;9.71;100.00
56944;BME280;42848;42.524;12.052;2022-11-15T07:41:00;97019.28;;;9.79;100.00
56944;BME280;42848;42.524;12.052;2022-11-15T07:43:27;97026.59;;;9.78;100.00
56944;BME280;42848;42.524;12.052;2022-11-15T07:45:58;97028.31;;;9.74;100.00
56944;BME280;42848;42.524;12.052;2022-11-15T07:48:23;97022.78;;;9.79;100.00
56944;BME280;42848;42.524;12.052;2022-11-15T07:50:49;97031.34;;;9.73;100.00
56944;BME280;42848;42.524;12.052;2022-11-15T07:53:15;97027.22;;;9.75;100.00
56944;BME280;42848;42.524;12.052;2022-11-15T07:55:41;97034.63;;;9.83;100.00
56944;BME280;42848;42.524;12.052;2022-11-15T07:58:09;97022.78;;;9.79;100.00
56944;BME280;42848;42.524;12.052;2022-11-15T08:00:36;97019.56;;;9.77;100.00
56944;BME280;42848;42.524;12.052;2022-11-15T08:03:13;97026.56;;;9.69;100.00
56944;BME280;42848;42.524;12.052;2022-11-15T08:05:40;97006.63;;;9.52;100.00
56944;BME280;42848;42.524;12.052;2022-11-15T08:08:08;97005.28;;;9.85;100.00
56944;BME280;42848;42.524;12.052;2022-11-15T08:10:35;97010.44;;;9.95;100.00
56944;BME280;42848;42.524;12.052;2022-11-15T08:13:05;97004.53;;;9.93;100.00
56944;BME280;42848;42.524;12.052;2022-11-15T08:15:32;97005.75;;;9.43;100.00
56944;BME280;42848;42.524;12.052;2022-11-15T08:17:59;97006.25;;;9.45;100.00
56944;BME280;42848;42.524;12.052;2022-11-15T08:20:27;97006.38;;;9.62;100.00
56944;BME280;42848;42.524;12.052;2022-11-15T08:23:00;96999.69;;;9.82;100.00
56944;BME280;42848;42.524;12.052;2022-11-15T08:25:27;96991.19;;;9.97;100.00
56944;BME280;42848;42.524;12.052;2022-11-15T08:27:55;96982.88;;;9.71;100.00
56944;BME280;42848;42.524;12.052;2022-11-15T08:30:21;96983.22;;;9.78;100.00
56944;BME280;42848;42.524;12.052;2022-11-15T08:32:48;96977.44;;;9.93;100.00
56944;BME280;42848;42.524;12.052;2022-11-15T08:35:14;96982.13;;;9.79;100.00
56944;BME280;42848;42.524;12.052;2022-11-15T08:37:40;96984.06;;;9.87;100.00
56944;BME280;42848;42.524;12.052;2022-11-15T08:40:06;96994.81;;;9.92;100.00
56944;BME280;42848;42.524;12.052;2022-11-15T08:42:33;96990.56;;;9.41;100.00
56944;BME280;42848;42.524;12.052;2022-11-15T08:44:58;97001.13;;;9.43;100.00
56944;BME280;42848;42.524;12.052;2022-11-15T08:47:24;96992.38;;;9.68;100.00
56944;BME280;42848;42.524;12.052;2022-11-15T08:49:50;96994.59;;;9.44;100.00
56944;BME280;42848;42.524;12.052;2022-11-15T08:52:15;96979.78;;;9.64;100.00
56944;BME280;42848;42.524;12.052;2022-11-15T08:54:41;96982.66;;;9.67;100.00
56944;BME280;42848;42.524;12.052;2022-11-15T08:57:07;96983.84;;;9.97;100.00
56944;BME280;42848;42.524;12.052;2022-11-15T08:59:35;96987.03;;;10.00;100.00
56944;BME280;42848;42.524;12.052;2022-11-15T09:02:01;96985.00;;;9.83;100.00
56944;BME280;42848;42.524;12.052;2022-11-15T09:04:27;96992.94;;;9.57;100.00
56944;BME280;42848;42.524;12.052;2022-11-15T09:06:53;96987.66;;;9.74;100.00
56944;BME280;42848;42.524;12.052;2022-11-15T09:09:18;96978.97;;;10.08;100.00
56944;BME280;42848;42.524;12.052;2022-11-15T09:11:44;96987.63;;;10.19;100.00
56944;BME280;42848;42.524;12.052;2022-11-15T09:14:11;96976.56;;;10.07;100.00
56944;BME280;42848;42.524;12.052;2022-11-15T09:16:38;96982.41;;;10.22;100.00
56944;BME280;42848;42.524;12.052;2022-11-15T09:19:03;96978.97;;;10.08;100.00
56944;BME280;42848;42.524;12.052;2022-11-15T09:21:30;96974.78;;;10.24;100.00
56944;BME280;42848;42.524;12.052;2022-11-15T09:23:55;96978.03;;;10.13;100.00
56944;BME280;42848;42.524;12.052;2022-11-15T09:26:21;96975.63;;;10.34;100.00
56944;BME280;42848;42.524;12.052;2022-11-15T09:28:47;96977.84;;;10.09;100.00
56944;BME280;42848;42.524;12.052;2022-11-15T09:31:13;96964.72;;;10.25;100.00
56944;BME280;42848;42.524;12.052;2022-11-15T09:33:39;96975.19;;;10.18;100.00
56944;BME280;42848;42.524;12.052;2022-11-15T09:36:06;96976.31;;;10.17;100.00
56944;BME280;42848;42.524;12.052;2022-11-15T09:38:33;96971.50;;;9.91;100.00
56944;BME280;42848;42.524;12.052;2022-11-15T09:43:49;96972.97;;;10.20;100.00
56944;BME280;42848;42.524;12.052;2022-11-15T09:47:16;96977.47;;;10.02;100.00
56944;BME280;42848;42.524;12.052;2022-11-15T09:49:33;96966.06;;;10.36;100.00
56944;BME280;42848;42.524;12.052;2022-11-15T09:51:59;96965.66;;;10.60;100.00
56944;BME280;42848;42.524;12.052;2022-11-15T09:54:36;96960.63;;;10.36;100.00
56944;BME280;42848;42.524;12.052;2022-11-15T09:57:11;96954.94;;;10.46;100.00
56944;BME280;42848;42.524;12.052;2022-11-15T09:59:45;96950.81;;;10.58;100.00
56944;BME280;42848;42.524;12.052;2022-11-15T10:02:33;96948.53;;;10.51;100.00
56944;BME280;42848;42.524;12.052;2022-11-15T10:05:11;96943.69;;;10.70;100.00
56944;BME280;42848;42.524;12.052;2022-11-15T10:10:55;96935.53;;;10.70;100.00
56944;BME280;42848;42.524;12.052;2022-11-15T10:13:26;96924.34;;;10.72;100.00
56944;BME280;42848;42.524;12.052;2022-11-15T10:16:04;96921.19;;;10.87;100.00
56944;BME280;42848;42.524;12.052;2022-11-15T10:18:56;96920.38;;;10.78;100.00
56944;BME280;42848;42.524;12.052;2022-11-15T10:24:01;96910.50;;;10.91;100.00
56944;BME280;42848;42.524;12.052;2022-11-15T10:26:27;96907.28;;;10.80;100.00
56944;BME280;42848;42.524;12.052;2022-11-15T10:28:53;96902.16;;;10.70;100.00
56944;BME280;42848;42.524;12.052;2022-11-15T10:31:26;96900.44;;;10.91;100.00
56944;BME280;42848;42.524;12.052;2022-11-15T10:34:22;96891.84;;;11.06;100.00
56944;BME280;42848;42.524;12.052;2022-11-15T10:36:59;96890.06;;;11.02;100.00
56944;BME280;42848;42.524;12.052;2022-11-15T10:39:26;96884.13;;;10.91;100.00
56944;BME280;42848;42.524;12.052;2022-11-15T10:41:52;96880.31;;;11.09;100.00
56944;BME280;42848;42.524;12.052;2022-11-15T10:44:31;96869.09;;;10.85;100.00
56944;BME280;42848;42.524;12.052;2022-11-15T10:49:30;96871.38;;;11.18;100.00
56944;BME280;42848;42.524;12.052;2022-11-15T10:54:34;96868.81;;;11.13;100.00
56944;BME280;42848;42.524;12.052;2022-11-15T10:57:04;96862.41;;;10.91;100.00
56944;BME280;42848;42.524;12.052;2022-11-15T10:59:33;96850.28;;;10.80;100.00
56944;BME280;42848;42.524;12.052;2022-11-15T11:02:01;96840.84;;;11.12;100.00
56944;BME280;42848;42.524;12.052;2022-11-15T11:04:26;96847.72;;;11.09;100.00
56944;BME280;42848;42.524;12.052;2022-11-15T11:06:53;96838.91;;;11.04;100.00
56944;BME280;42848;42.524;12.052;2022-11-15T11:09:34;96838.78;;;11.18;100.00
56944;BME280;42848;42.524;12.052;2022-11-15T11:12:02;96833.47;;;11.21;100.00
56944;BME280;42848;42.524;12.052;2022-11-15T11:14:31;96839.09;;;11.25;100.00
56944;BME280;42848;42.524;12.052;2022-11-15T11:17:13;96825.00;;;11.23;100.00
56944;BME280;42848;42.524;12.052;2022-11-15T11:36:16;96813.66;;;11.38;100.00
56944;BME280;42848;42.524;12.052;2022-11-15T11:44:08;96809.03;;;11.21;100.00
56944;BME280;42848;42.524;12.052;2022-11-15T11:46:47;96804.06;;;11.32;100.00
56944;BME280;42848;42.524;12.052;2022-11-15T11:52:18;96803.25;;;11.40;100.00
56944;BME280;42848;42.524;12.052;2022-11-15T11:57:57;96794.47;;;11.34;100.00
56944;BME280;42848;42.524;12.052;2022-11-15T12:00:28;96783.25;;;11.53;100.00
56944;BME280;42848;42.524;12.052;2022-11-15T12:03:14;96785.00;;;11.49;100.00
56944;BME280;42848;42.524;12.052;2022-11-15T12:05:50;96790.75;;;11.56;100.00
56944;BME280;42848;42.524;12.052;2022-11-15T12:08:29;96781.47;;;11.49;100.00
56944;BME280;42848;42.524;12.052;2022-11-15T12:11:24;96776.69;;;11.54;100.00
56944;BME280;42848;42.524;12.052;2022-11-15T12:13:58;96776.22;;;11.44;100.00
56944;BME280;42848;42.524;12.052;2022-11-15T12:16:32;96771.53;;;11.61;100.00
56944;BME280;42848;42.524;12.052;2022-11-15T12:19:03;96769.00;;;11.56;100.00
56944;BME280;42848;42.524;12.052;2022-11-15T12:21:41;96760.00;;;11.64;100.00
56944;BME280;42848;42.524;12.052;2022-11-15T12:27:01;96764.41;;;11.78;100.00
56944;BME280;42848;42.524;12.052;2022-11-15T12:32:04;96771.34;;;11.66;100.00
56944;BME280;42848;42.524;12.052;2022-11-15T12:34:41;96763.69;;;11.60;100.00
56944;BME280;42848;42.524;12.052;2022-11-15T12:45:39;96747.59;;;11.46;100.00
56944;BME280;42848;42.524;12.052;2022-11-15T12:58:44;96740.25;;;11.38;100.00
56944;BME280;42848;42.524;12.052;2022-11-15T13:06:49;96720.91;;;11.39;100.00
56944;BME280;42848;42.524;12.052;2022-11-15T13:12:06;96713.69;;;11.52;100.00
56944;BME280;42848;42.524;12.052;2022-11-15T13:19:53;96701.19;;;11.51;100.00
56944;BME280;42848;42.524;12.052;2022-11-15T13:22:22;96687.44;;;11.56;100.00
56944;BME280;42848;42.524;12.052;2022-11-15T13:25:16;96694.09;;;11.67;100.00
56944;BME280;42848;42.524;12.052;2022-11-15T13:27:50;96688.25;;;11.48;100.00
56944;BME280;42848;42.524;12.052;2022-11-15T13:30:23;96683.53;;;11.36;100.00
56944;BME280;42848;42.524;12.052;2022-11-15T13:32:50;96678.81;;;11.54;100.00
56944;BME280;42848;42.524;12.052;2022-11-15T13:35:28;96667.47;;;11.52;100.00
56944;BME280;42848;42.524;12.052;2022-11-15T13:37:55;96676.88;;;11.55;100.00
56944;BME280;42848;42.524;12.052;2022-11-15T13:42:47;96670.88;;;11.32;100.00
56944;BME280;42848;42.524;12.052;2022-11-15T13:45:17;96661.75;;;11.45;100.00
56944;BME280;42848;42.524;12.052;2022-11-15T13:47:44;96664.81;;;11.35;100.00
56944;BME280;42848;42.524;12.052;2022-11-15T13:50:11;96659.38;;;11.35;100.00
56944;BME280;42848;42.524;12.052;2022-11-15T13:52:39;96652.97;;;11.39;100.00
56944;BME280;42848;42.524;12.052;2022-11-15T13:55:13;96643.88;;;11.35;100.00
56944;BME280;42848;42.524;12.052;2022-11-15T13:57:48;96640.78;;;11.46;100.00
56944;BME280;42848;42.524;12.052;2022-11-15T14:00:44;96649.19;;;11.61;100.00
56944;BME280;42848;42.524;12.052;2022-11-15T14:03:20;96638.78;;;11.63;100.00
56944;BME280;42848;42.524;12.052;2022-11-15T14:06:05;96637.72;;;11.77;100.00
56944;BME280;42848;42.524;12.052;2022-11-15T14:08:39;96639.66;;;11.76;100.00
56944;BME280;42848;42.524;12.052;2022-11-15T14:11:25;96633.69;;;11.62;100.00
56944;BME280;42848;42.524;12.052;2022-11-15T14:16:45;96630.03;;;11.49;100.00
56944;BME280;42848;42.524;12.052;2022-11-15T14:22:12;96619.00;;;11.54;100.00
56944;BME280;42848;42.524;12.052;2022-11-15T14:24:39;96613.84;;;11.61;100.00
56944;BME280;42848;42.524;12.052;2022-11-15T14:27:26;96610.84;;;11.54;100.00
56944;BME280;42848;42.524;12.052;2022-11-15T14:29:53;96603.63;;;11.58;100.00
56944;BME280;42848;42.524;12.052;2022-11-15T14:32:21;96587.75;;;11.60;100.00
56944;BME280;42848;42.524;12.052;2022-11-15T14:34:49;96600.84;;;11.67;100.00
56944;BME280;42848;42.524;12.052;2022-11-15T14:37:26;96599.59;;;11.35;100.00
56944;BME280;42848;42.524;12.052;2022-11-15T14:39:53;96595.91;;;11.60;100.00
56944;BME280;42848;42.524;12.052;2022-11-15T14:42:20;96589.38;;;11.61;100.00
56944;BME280;42848;42.524;12.052;2022-11-15T14:44:46;96585.72;;;11.57;100.00
56944;BME280;42848;42.524;12.052;2022-11-15T14:47:12;96590.75;;;11.67;100.00
56944;BME280;42848;42.524;12.052;2022-11-15T14:49:38;96582.38;;;11.52;100.00
56944;BME280;42848;42.524;12.052;2022-11-15T14:54:49;96580.56;;;11.64;100.00
56944;BME280;42848;42.524;12.052;2022-11-15T14:57:15;96575.63;;;11.58;100.00